Terminal Aerodrome Forecast
Issued by NWS

Current Version | Previous Version | Graphics & Text | Print | Product List | Glossary On
Versions: 1 2 3 4 5 6 7 8 9 10 11 12 13 14 15 16 17 18 19
000
FTUS41 KILN 290539
TAFLUK
TAF
KLUK 290539Z 2906/3006 00000KT 5SM BR SKC
     FM290700 00000KT 2SM BR SKC
     FM290900 00000KT 1/4SM FG VV002
     FM291300 26005KT P6SM SCT040 BKN120
     FM291800 28008KT P6SM VCTS BKN040CB
      TEMPO 2919/2921 4SM -TSRA BKN035CB
     FM292300 30004KT P6SM SCT120=

USA.gov is the U.S. government's official web portal to all federal, state and local government web resources and services.